createdAt,value
2022-12-11T05:01:32.056Z,92.57
2022-12-11T05:05:53.873Z,93.20
2022-12-11T05:10:06.585Z,93.49
2022-12-11T05:14:18.365Z,93.29
2022-12-11T05:18:29.942Z,93.23
2022-12-11T05:22:41.614Z,92.84
2022-12-11T05:26:53.306Z,93.28
2022-12-11T05:31:17.442Z,93.00
2022-12-11T05:35:29.192Z,93.19
2022-12-11T05:39:43.961Z,92.32
2022-12-11T05:43:56.002Z,92.76
2022-12-11T05:48:14.933Z,91.76
2022-12-11T05:52:30.424Z,92.95
2022-12-11T05:56:45.077Z,91.63
2022-12-11T06:00:56.902Z,92.05
2022-12-11T06:05:08.685Z,93.47
2022-12-11T06:09:20.666Z,93.00
2022-12-11T06:13:32.733Z,93.10
2022-12-11T06:17:44.527Z,93.11
2022-12-11T06:21:56.069Z,93.06
2022-12-11T06:26:08.115Z,92.80
2022-12-11T06:30:19.860Z,93.17
2022-12-11T06:34:31.721Z,93.33
2022-12-11T06:38:44.516Z,93.32
2022-12-11T06:42:56.243Z,93.74
2022-12-11T06:47:08.118Z,93.69
2022-12-11T06:51:22.541Z,93.56
2022-12-11T06:55:37.591Z,93.49
2022-12-11T06:59:49.156Z,92.76
2022-12-11T07:04:00.772Z,93.61
2022-12-11T07:08:12.284Z,92.68
2022-12-11T07:12:24.231Z,93.68
2022-12-11T07:16:36.481Z,93.47
2022-12-11T07:20:48.019Z,93.41
2022-12-11T07:24:59.877Z,93.79
2022-12-11T07:29:11.528Z,93.57
2022-12-11T07:33:23.499Z,93.17
2022-12-11T07:37:35.402Z,93.16
2022-12-11T07:41:47.223Z,93.86
2022-12-11T07:46:07.377Z,93.61
2022-12-11T07:50:20.049Z,93.41
2022-12-11T07:54:31.882Z,100.00
2022-12-11T07:58:43.830Z,97.57
2022-12-11T08:02:55.444Z,93.54
2022-12-11T08:07:07.149Z,93.27
2022-12-11T08:11:19.221Z,92.58
2022-12-11T08:15:31.232Z,92.79
2022-12-11T08:19:42.903Z,92.70
2022-12-11T08:23:55.835Z,92.77
2022-12-11T08:28:07.504Z,93.22
2022-12-11T08:32:19.197Z,93.20
2022-12-11T08:36:31.825Z,92.67
2022-12-11T08:40:43.759Z,92.12
2022-12-11T08:44:55.318Z,92.17
2022-12-11T08:49:06.910Z,91.45
2022-12-11T08:53:18.507Z,91.63
2022-12-11T08:57:29.945Z,91.72
2022-12-11T09:01:41.929Z,91.82
2022-12-11T09:05:53.451Z,91.57
2022-12-11T09:10:06.892Z,91.25
2022-12-11T09:14:18.423Z,90.12
2022-12-11T09:18:29.872Z,90.93
2022-12-11T09:22:42.765Z,90.37
2022-12-11T09:26:54.558Z,90.00
2022-12-11T09:31:10.909Z,90.51
2022-12-11T09:35:22.513Z,90.76
2022-12-11T09:39:33.984Z,90.00
2022-12-11T09:44:20.259Z,89.53
2022-12-11T09:48:33.657Z,89.63
2022-12-11T09:53:11.388Z,89.21
2022-12-11T09:57:25.891Z,89.00
2022-12-11T10:01:41.329Z,89.07
2022-12-11T10:06:05.072Z,89.38
2022-12-11T10:10:38.560Z,89.47
2022-12-11T10:15:13.221Z,89.34
2022-12-11T10:19:28.653Z,88.57
2022-12-11T10:23:58.366Z,88.31
2022-12-11T10:28:14.901Z,87.85
2022-12-11T10:32:39.906Z,87.42
2022-12-11T10:36:54.762Z,86.57
2022-12-11T10:41:13.652Z,96.22
2022-12-11T10:45:25.113Z,88.24
2022-12-11T10:49:39.118Z,87.49
2022-12-11T10:53:57.100Z,85.81
2022-12-11T10:58:19.045Z,87.11
2022-12-11T11:02:41.377Z,88.16
2022-12-11T11:07:27.068Z,87.53
2022-12-11T11:11:39.365Z,87.63
2022-12-11T11:16:00.241Z,87.19
2022-12-11T11:20:19.118Z,86.37
2022-12-11T11:24:37.579Z,86.27
2022-12-11T11:28:55.721Z,86.74
2022-12-11T11:33:20.671Z,86.38
2022-12-11T11:37:34.248Z,86.78
2022-12-11T11:41:53.752Z,85.46
2022-12-11T11:46:20.277Z,84.94
2022-12-11T11:50:35.712Z,83.14
2022-12-11T11:55:08.813Z,82.80
2022-12-11T11:59:56.145Z,82.23
2022-12-11T12:04:07.842Z,82.78
2022-12-11T12:08:51.874Z,83.52
2022-12-11T12:13:47.718Z,83.20
2022-12-11T12:18:02.698Z,82.35
2022-12-11T12:22:35.706Z,80.92
2022-12-11T12:27:17.587Z,80.64
2022-12-11T12:32:09.556Z,80.17
2022-12-11T12:36:37.576Z,80.56
2022-12-11T12:41:14.193Z,80.09
2022-12-11T12:45:39.972Z,80.45
2022-12-11T12:49:54.344Z,80.95
2022-12-11T12:54:12.248Z,81.02
2022-12-11T12:58:39.929Z,81.62
2022-12-11T13:02:53.626Z,81.65
2022-12-11T13:07:23.426Z,81.12
2022-12-11T13:11:36.294Z,80.70
2022-12-11T13:15:47.758Z,79.47
2022-12-11T13:20:31.030Z,80.76
2022-12-11T13:24:58.519Z,80.61
2022-12-11T13:29:34.301Z,80.40
2022-12-11T13:33:49.212Z,80.22
2022-12-11T13:38:08.176Z,81.03
2022-12-11T13:42:34.327Z,81.50
2022-12-11T13:46:46.025Z,80.99
2022-12-11T13:50:58.975Z,81.33
2022-12-11T13:55:25.517Z,81.52
2022-12-11T13:59:41.331Z,81.83
2022-12-11T14:04:04.806Z,82.06
2022-12-11T14:08:32.371Z,82.62
2022-12-11T14:12:51.550Z,82.79
2022-12-11T14:17:03.407Z,84.02
2022-12-11T14:21:24.274Z,84.07
2022-12-11T14:25:35.796Z,84.42
2022-12-11T14:29:47.967Z,84.42
2022-12-11T14:34:15.561Z,84.49
2022-12-11T14:38:30.825Z,84.56
2022-12-11T14:43:00.009Z,84.44
2022-12-11T14:47:22.953Z,85.01
2022-12-11T14:51:42.419Z,84.85
2022-12-11T14:56:21.114Z,84.60
2022-12-11T15:00:39.709Z,84.83
2022-12-11T15:09:46.783Z,86.10
2022-12-11T15:14:00.953Z,86.67
2022-12-11T15:18:24.126Z,85.67
2022-12-11T15:22:44.531Z,86.53
2022-12-11T15:27:32.932Z,86.20
2022-12-11T15:31:44.478Z,86.10
2022-12-11T15:36:05.900Z,86.07
2022-12-11T15:40:17.721Z,86.40
2022-12-11T15:49:58.694Z,87.67
2022-12-11T15:54:10.370Z,87.63
2022-12-11T15:58:24.224Z,86.65
2022-12-11T16:02:48.382Z,86.18
2022-12-11T16:07:00.086Z,86.67
2022-12-11T16:11:13.625Z,87.23
2022-12-11T16:15:28.889Z,86.74
2022-12-11T16:19:42.022Z,86.77
2022-12-11T16:23:53.481Z,87.06
2022-12-11T16:28:06.711Z,87.18
2022-12-11T16:32:18.570Z,86.51
2022-12-11T16:36:30.049Z,86.49
2022-12-11T16:40:41.738Z,86.36
2022-12-11T16:44:54.090Z,86.03
2022-12-11T16:49:05.696Z,86.88
2022-12-11T16:53:17.529Z,87.20
2022-12-11T16:57:28.993Z,87.82
2022-12-11T17:01:40.743Z,87.57
2022-12-11T17:05:52.312Z,87.98
2022-12-11T17:10:04.421Z,88.07
2022-12-11T17:14:15.982Z,87.90
2022-12-11T17:18:27.687Z,87.75
2022-12-11T17:22:39.223Z,87.94
2022-12-11T17:26:50.783Z,87.87
2022-12-11T17:31:12.638Z,88.41
2022-12-11T17:35:24.268Z,88.79
2022-12-11T17:39:37.085Z,88.71
2022-12-11T17:43:50.816Z,89.45
2022-12-11T17:48:02.296Z,89.33
2022-12-11T17:52:13.889Z,89.28
2022-12-11T17:56:26.154Z,89.52
2022-12-11T18:00:42.581Z,89.26
2022-12-11T18:04:54.967Z,89.74
2022-12-11T18:09:06.766Z,89.31
2022-12-11T18:13:26.542Z,89.29
2022-12-11T18:18:21.989Z,89.34
2022-12-11T18:28:44.374Z,90.29
2022-12-11T18:38:37.800Z,89.74
2022-12-11T18:42:53.447Z,89.48
2022-12-11T18:47:15.036Z,89.92
2022-12-11T18:51:26.649Z,89.44
2022-12-11T18:55:46.091Z,89.54
2022-12-11T19:00:02.321Z,89.79
2022-12-11T19:04:13.855Z,90.17
2022-12-11T19:08:25.390Z,90.14
2022-12-11T19:12:36.914Z,89.73
2022-12-11T19:16:49.834Z,89.67
2022-12-11T19:21:08.506Z,89.39
2022-12-11T19:25:20.490Z,89.39
2022-12-11T19:29:34.824Z,89.12
2022-12-11T19:33:46.855Z,89.70
2022-12-11T19:37:58.360Z,89.58
2022-12-11T19:42:10.058Z,89.47
2022-12-11T19:46:22.333Z,89.60
2022-12-11T19:50:36.273Z,89.18
2022-12-11T19:54:47.814Z,89.92
2022-12-11T19:59:01.894Z,89.65
2022-12-11T20:03:13.604Z,89.50
2022-12-11T20:07:30.493Z,89.50
2022-12-11T20:11:44.462Z,89.49
2022-12-11T20:15:56.010Z,89.60
2022-12-11T20:20:07.928Z,89.16
2022-12-11T20:24:19.915Z,89.33
2022-12-11T20:28:31.447Z,89.23
2022-12-11T20:32:43.580Z,89.16
2022-12-11T20:36:56.245Z,89.35
2022-12-11T20:41:13.489Z,89.63
2022-12-11T20:45:25.413Z,88.48
2022-12-11T20:49:37.092Z,88.70
2022-12-11T20:53:50.315Z,88.83
2022-12-11T20:58:01.798Z,88.97
2022-12-11T21:02:13.501Z,89.08
2022-12-11T21:06:31.590Z,87.74
2022-12-11T21:10:46.287Z,88.39
2022-12-11T21:14:57.794Z,88.15
2022-12-11T21:19:16.529Z,88.18
2022-12-11T21:23:28.453Z,87.63
2022-12-11T21:27:39.965Z,87.64
2022-12-11T21:31:51.937Z,87.83
2022-12-11T21:36:05.883Z,88.21
2022-12-11T21:40:17.448Z,88.01
2022-12-11T21:49:00.511Z,87.85
2022-12-11T21:53:12.028Z,88.02
2022-12-11T21:57:26.473Z,87.31
2022-12-11T22:01:41.989Z,87.27
2022-12-11T22:05:53.859Z,87.04
2022-12-11T22:16:26.034Z,87.66
2022-12-11T22:21:13.329Z,87.50
